Time;durP1;ratioP1;P1;durP2;ratioP2;P2;SDS_P1;SDS_P2;PMS_P1;PMS_P2;Temp;Humidity;BMP_temperature;BMP_pressure;BME280_temperature;BME280_humidity;BME280_pressure;Samples;Min_cycle;Max_cycle;Signal;HPM_P1;HPM_P2
2021/04/18 00:01:07;;;;;;;18.90;11.23;;;5.50;87.70;;;;;;5111572;28;20052;-67
2021/04/18 00:03:34;;;;;;;16.87;8.13;;;5.50;87.80;;;;;;5111499;28;20062;-67
2021/04/18 00:06:00;;;;;;;22.97;9.60;;;5.50;87.90;;;;;;5111086;28;20297;-68
2021/04/18 00:08:25;;;;;;;22.03;8.83;;;5.50;88.00;;;;;;5111882;28;20063;-68
2021/04/18 00:10:51;;;;;;;15.43;9.33;;;5.60;88.10;;;;;;5111555;28;20333;-68
2021/04/18 00:13:18;;;;;;;12.97;9.17;;;5.50;88.00;;;;;;5110983;28;20059;-68
2021/04/18 00:15:44;;;;;;;17.23;9.67;;;5.50;88.00;;;;;;5111711;28;20476;-68
2021/04/18 00:18:11;;;;;;;21.97;10.27;;;5.50;88.10;;;;;;5110535;28;20309;-68
2021/04/18 00:20:36;;;;;;;15.63;10.60;;;5.50;88.10;;;;;;5111438;28;20611;-69
2021/04/18 00:23:02;;;;;;;19.33;9.50;;;5.60;88.10;;;;;;5110720;28;20305;-68
2021/04/18 00:25:28;;;;;;;22.23;10.33;;;5.60;88.30;;;;;;5111097;28;20048;-68
2021/04/18 00:27:54;;;;;;;15.90;8.87;;;5.60;88.30;;;;;;5111068;28;20074;-68
2021/04/18 00:30:21;;;;;;;18.40;10.10;;;5.50;88.30;;;;;;5111069;28;20719;-68
2021/04/18 00:32:48;;;;;;;19.37;10.17;;;5.50;88.20;;;;;;5110722;28;20079;-68
2021/04/18 00:35:15;;;;;;;18.53;8.70;;;5.50;88.40;;;;;;5110689;27;20306;-68
2021/04/18 00:37:41;;;;;;;20.47;11.33;;;5.40;88.50;;;;;;5110721;28;20345;-68
2021/04/18 00:40:17;;;;;;;18.47;11.47;;;5.50;88.70;;;;;;5109759;28;20305;-68
2021/04/18 00:42:43;;;;;;;16.63;9.93;;;5.40;88.80;;;;;;5111223;28;20294;-68
2021/04/18 00:45:11;;;;;;;17.77;11.97;;;5.40;88.90;;;;;;5110393;28;20305;-68
2021/04/18 00:47:43;;;;;;;18.47;11.70;;;5.40;88.90;;;;;;5110876;28;20563;-68
2021/04/18 00:50:11;;;;;;;26.00;11.43;;;5.30;89.00;;;;;;5111244;28;20289;-67
2021/04/18 00:52:37;;;;;;;23.20;11.77;;;5.30;89.10;;;;;;5111210;28;20297;-68
2021/04/18 00:55:08;;;;;;;18.67;11.67;;;5.30;89.40;;;;;;5109860;28;20659;-67
2021/04/18 00:57:34;;;;;;;19.23;11.03;;;5.30;89.40;;;;;;5110717;28;20047;-68
2021/04/18 01:00:01;;;;;;;17.77;9.37;;;5.30;89.50;;;;;;5110061;28;20723;-68
2021/04/18 01:02:27;;;;;;;19.93;10.27;;;5.30;89.40;;;;;;5110738;28;20301;-68
2021/04/18 01:04:53;;;;;;;18.77;10.93;;;5.40;89.50;;;;;;5110323;28;20294;-68
2021/04/18 01:07:22;;;;;;;23.13;12.30;;;5.40;89.40;;;;;;5110008;28;20811;-68
2021/04/18 01:09:48;;;;;;;17.23;9.40;;;5.30;89.30;;;;;;5110829;28;20040;-68
2021/04/18 01:12:14;;;;;;;18.40;11.17;;;5.30;89.40;;;;;;5110074;28;20350;-68
2021/04/18 01:14:40;;;;;;;18.10;12.10;;;5.40;89.60;;;;;;5109627;28;20412;-68
2021/04/18 01:17:06;;;;;;;20.90;10.80;;;5.40;89.70;;;;;;5110027;28;20846;-68
2021/04/18 01:19:31;;;;;;;21.23;10.87;;;5.30;89.70;;;;;;5110933;28;20130;-68
2021/04/18 01:21:57;;;;;;;25.43;12.47;;;5.30;89.80;;;;;;5109254;28;20468;-68
2021/04/18 01:24:25;;;;;;;21.43;12.67;;;5.30;89.90;;;;;;5110193;27;20046;-68
2021/04/18 01:26:51;;;;;;;19.03;11.20;;;5.30;89.80;;;;;;5109892;28;20063;-68
2021/04/18 01:29:17;;;;;;;17.80;10.20;;;5.30;89.80;;;;;;5109945;28;20293;-68
2021/04/18 01:31:43;;;;;;;18.30;10.67;;;5.30;89.80;;;;;;5110212;28;20297;-68
2021/04/18 01:34:13;;;;;;;15.60;10.60;;;5.30;89.70;;;;;;5109530;28;20631;-68
2021/04/18 01:36:43;;;;;;;16.27;10.50;;;5.30;89.70;;;;;;5109869;28;20126;-68
2021/04/18 01:39:09;;;;;;;15.73;10.20;;;5.30;89.70;;;;;;5109679;28;20290;-68
2021/04/18 01:41:35;;;;;;;18.60;10.17;;;5.30;89.50;;;;;;5109827;28;20345;-68
2021/04/18 01:44:02;;;;;;;17.43;9.87;;;5.20;89.50;;;;;;5108820;28;20047;-68
2021/04/18 01:46:28;;;;;;;18.90;10.60;;;5.20;89.50;;;;;;5110293;28;20290;-68
2021/04/18 01:48:54;;;;;;;16.97;10.33;;;5.10;89.50;;;;;;5109274;27;20603;-68
2021/04/18 01:51:19;;;;;;;14.10;8.93;;;5.10;89.50;;;;;;5108528;28;20063;-68
2021/04/18 01:53:45;;;;;;;14.83;10.47;;;5.10;89.60;;;;;;5109459;28;20122;-68
2021/04/18 01:56:11;;;;;;;15.17;10.43;;;5.00;89.50;;;;;;5109763;28;20044;-68
2021/04/18 01:58:37;;;;;;;10.80;8.57;;;5.00;89.50;;;;;;5109082;28;20150;-68
2021/04/18 02:01:02;;;;;;;13.23;9.83;;;5.00;89.50;;;;;;5109141;28;20440;-68
2021/04/18 02:03:28;;;;;;;12.27;8.60;;;5.00;89.70;;;;;;5109755;28;20046;-67
2021/04/18 02:05:54;;;;;;;11.03;9.23;;;4.90;89.70;;;;;;5108876;28;21150;-68
2021/04/18 02:08:20;;;;;;;10.57;8.87;;;4.90;89.80;;;;;;5109739;28;20396;-68
2021/04/18 02:10:46;;;;;;;13.40;9.43;;;4.90;90.00;;;;;;5108382;28;20051;-68
2021/04/18 02:13:11;;;;;;;12.40;8.13;;;4.80;89.90;;;;;;5109551;28;20050;-68
2021/04/18 02:15:40;;;;;;;14.07;10.20;;;4.90;90.00;;;;;;5109188;28;20039;-68
2021/04/18 02:18:06;;;;;;;10.90;8.60;;;4.80;90.00;;;;;;5108151;28;20058;-68
2021/04/18 02:20:31;;;;;;;11.20;7.70;;;4.80;89.90;;;;;;5109029;28;20654;-68
2021/04/18 02:22:57;;;;;;;11.87;9.20;;;4.80;89.90;;;;;;5108330;28;20457;-67
2021/04/18 02:25:23;;;;;;;16.83;10.97;;;4.80;90.00;;;;;;5108500;28;20055;-68
2021/04/18 02:27:48;;;;;;;13.27;9.50;;;4.70;90.00;;;;;;5108886;28;20409;-68
2021/04/18 02:30:15;;;;;;;9.93;7.57;;;4.70;90.00;;;;;;5109078;28;20175;-68
2021/04/18 02:32:41;;;;;;;14.43;10.40;;;4.70;90.00;;;;;;5108328;28;20063;-68
2021/04/18 02:35:08;;;;;;;12.53;8.90;;;4.70;90.00;;;;;;5108573;28;20304;-68
2021/04/18 02:37:34;;;;;;;11.23;9.70;;;4.70;90.00;;;;;;5108592;28;20305;-67
2021/04/18 02:39:59;;;;;;;11.33;9.23;;;4.60;90.00;;;;;;5108342;28;20297;-68
2021/04/18 02:42:25;;;;;;;11.07;8.73;;;4.60;90.10;;;;;;5108912;28;20301;-68
2021/04/18 02:44:51;;;;;;;10.10;7.50;;;4.50;90.10;;;;;;5108684;28;20047;-68
2021/04/18 02:47:17;;;;;;;11.67;9.00;;;4.50;90.10;;;;;;5108496;28;20040;-68
2021/04/18 02:49:42;;;;;;;9.83;8.40;;;4.50;90.10;;;;;;5109050;28;20051;-68
2021/04/18 02:52:11;;;;;;;13.30;8.93;;;4.50;90.10;;;;;;5108236;28;20496;-68
2021/04/18 02:54:37;;;;;;;12.77;9.53;;;4.40;90.20;;;;;;5108176;28;20055;-68
2021/04/18 02:57:03;;;;;;;12.63;9.27;;;4.50;90.20;;;;;;5108547;28;20313;-68
2021/04/18 02:59:29;;;;;;;12.10;8.80;;;4.40;90.10;;;;;;5108460;28;20052;-68
2021/04/18 03:01:57;;;;;;;11.20;8.40;;;4.40;90.10;;;;;;5107391;28;20293;-68
2021/04/18 03:04:23;;;;;;;10.17;8.27;;;4.40;90.10;;;;;;5108412;28;20349;-68
2021/04/18 03:06:49;;;;;;;12.97;9.50;;;4.40;90.10;;;;;;5108377;28;20075;-68
2021/04/18 03:09:15;;;;;;;11.90;9.07;;;4.40;90.10;;;;;;5107706;28;20328;-68
2021/04/18 03:11:41;;;;;;;12.33;8.87;;;4.40;90.20;;;;;;5108402;28;20052;-68
2021/04/18 03:14:07;;;;;;;15.77;10.47;;;4.30;90.20;;;;;;5107900;28;20039;-68
2021/04/18 03:16:32;;;;;;;15.27;10.30;;;4.30;90.30;;;;;;5108093;28;20085;-68
2021/04/18 03:18:58;;;;;;;15.37;8.93;;;4.30;90.40;;;;;;5107691;28;20048;-68
2021/04/18 03:21:24;;;;;;;14.50;10.27;;;4.40;90.40;;;;;;5107910;28;20067;-68
2021/04/18 03:23:49;;;;;;;18.40;11.57;;;4.40;90.50;;;;;;5108615;28;20113;-68
2021/04/18 03:26:16;;;;;;;17.40;12.30;;;4.40;90.40;;;;;;5108174;28;20591;-68
2021/04/18 03:28:41;;;;;;;15.07;10.57;;;4.40;90.50;;;;;;5107902;28;20100;-68
2021/04/18 03:31:07;;;;;;;14.50;10.10;;;4.50;90.60;;;;;;5107929;28;20293;-68
2021/04/18 03:33:33;;;;;;;13.67;9.60;;;4.40;90.50;;;;;;5108526;28;20051;-68
2021/04/18 03:35:58;;;;;;;15.97;10.30;;;4.50;90.50;;;;;;5106874;28;20047;-68
2021/04/18 03:38:24;;;;;;;18.37;10.83;;;4.50;90.50;;;;;;5108211;28;20458;-68
2021/04/18 03:40:49;;;;;;;20.00;10.90;;;4.50;90.40;;;;;;5108083;28;20043;-68
2021/04/18 03:43:15;;;;;;;16.07;10.73;;;4.50;90.40;;;;;;5107479;28;20059;-68
2021/04/18 03:45:41;;;;;;;19.30;9.47;;;4.50;90.40;;;;;;5107814;27;20044;-69
2021/04/18 03:48:07;;;;;;;23.57;12.40;;;4.50;90.40;;;;;;5107647;28;20082;-68
2021/04/18 03:50:32;;;;;;;22.30;12.63;;;4.40;90.40;;;;;;5107978;28;20048;-68
2021/04/18 03:52:58;;;;;;;36.30;13.77;;;4.40;90.50;;;;;;5107314;28;20330;-68
2021/04/18 03:55:25;;;;;;;33.30;12.00;;;4.40;90.60;;;;;;5107863;28;20044;-68
2021/04/18 03:57:51;;;;;;;25.97;13.63;;;4.50;90.70;;;;;;5107212;28;20051;-65
2021/04/18 04:00:18;;;;;;;25.07;11.90;;;4.50;90.70;;;;;;5108169;28;20293;-65
2021/04/18 04:02:44;;;;;;;46.83;13.17;;;4.40;90.60;;;;;;5107775;28;20395;-66
2021/04/18 04:05:10;;;;;;;78.00;14.80;;;4.40;90.60;;;;;;5107475;28;20332;-66
2021/04/18 04:07:36;;;;;;;59.07;13.40;;;4.40;90.70;;;;;;5108327;28;20052;-66
2021/04/18 04:10:04;;;;;;;51.37;14.83;;;4.30;90.80;;;;;;5107103;28;20338;-66
2021/04/18 04:12:30;;;;;;;48.53;10.80;;;4.30;90.80;;;;;;5107273;28;20047;-66
2021/04/18 04:14:56;;;;;;;58.03;13.07;;;4.30;90.90;;;;;;5108644;28;20297;-66
2021/04/18 04:17:21;;;;;;;93.07;13.33;;;4.30;91.00;;;;;;5111233;28;20051;-66
2021/04/18 04:19:48;;;;;;;26.77;11.90;;;4.30;91.00;;;;;;5111057;28;20051;-66
2021/04/18 04:22:13;;;;;;;24.47;12.40;;;4.20;91.10;;;;;;5110943;28;20055;-68
2021/04/18 04:24:39;;;;;;;23.43;13.03;;;4.10;91.10;;;;;;5111447;27;20293;-66
2021/04/18 04:27:05;;;;;;;29.47;12.83;;;4.20;91.20;;;;;;5110598;28;20108;-68
2021/04/18 04:29:31;;;;;;;42.97;14.67;;;4.20;91.20;;;;;;5111069;28;20441;-68
2021/04/18 04:31:56;;;;;;;44.07;14.83;;;4.30;91.10;;;;;;5110179;28;20139;-67
2021/04/18 04:34:22;;;;;;;112.43;16.17;;;4.30;91.10;;;;;;5111411;28;20055;-67
2021/04/18 04:36:48;;;;;;;118.93;19.43;;;4.40;91.20;;;;;;5110572;28;20052;-67
2021/04/18 04:39:14;;;;;;;111.53;18.00;;;4.40;91.20;;;;;;5110254;28;20087;-67
2021/04/18 04:41:40;;;;;;;215.70;18.83;;;4.50;91.20;;;;;;5111461;28;20062;-67
2021/04/18 04:44:05;;;;;;;214.17;19.57;;;4.50;91.20;;;;;;5110911;27;20293;-67
2021/04/18 04:46:31;;;;;;;203.30;20.03;;;4.50;91.20;;;;;;5110337;28;20039;-67
2021/04/18 04:48:57;;;;;;;111.00;14.73;;;4.50;91.30;;;;;;5110223;28;20126;-67
2021/04/18 04:51:23;;;;;;;84.70;14.77;;;4.50;91.40;;;;;;5111099;28;20075;-67
2021/04/18 04:53:49;;;;;;;101.57;15.20;;;4.60;91.40;;;;;;5109971;28;20073;-67
2021/04/18 04:56:19;;;;;;;58.93;11.23;;;4.60;91.30;;;;;;5110516;28;20111;-67
2021/04/18 04:58:44;;;;;;;109.63;13.83;;;4.70;91.30;;;;;;5109964;27;20388;-67
2021/04/18 05:01:10;;;;;;;88.13;13.93;;;4.70;91.30;;;;;;5110454;27;20484;-67
2021/04/18 05:03:36;;;;;;;56.77;13.37;;;4.70;91.30;;;;;;5110261;28;20067;-67
2021/04/18 05:06:02;;;;;;;99.50;14.37;;;4.80;91.30;;;;;;5108405;28;20055;-67
2021/04/18 05:08:29;;;;;;;43.17;12.50;;;4.80;91.40;;;;;;5109982;28;20077;-67
2021/04/18 05:10:55;;;;;;;18.90;10.47;;;4.90;91.40;;;;;;5110571;28;20297;-67
2021/04/18 05:13:21;;;;;;;12.97;11.03;;;4.80;91.30;;;;;;5109014;28;20079;-67
2021/04/18 05:15:47;;;;;;;14.70;11.93;;;4.90;91.40;;;;;;5107995;28;20296;-69
2021/04/18 05:18:12;;;;;;;13.37;10.47;;;5.00;91.40;;;;;;5110443;28;20400;-67
2021/04/18 05:20:38;;;;;;;11.10;9.17;;;5.00;91.40;;;;;;5109858;28;20044;-68
2021/04/18 05:23:04;;;;;;;13.07;10.90;;;5.10;91.40;;;;;;5110231;28;20047;-67
2021/04/18 05:25:30;;;;;;;11.70;9.87;;;5.10;91.30;;;;;;5109827;28;20290;-67
2021/04/18 05:27:57;;;;;;;11.80;10.60;;;5.20;91.30;;;;;;5109563;28;20043;-66
2021/04/18 05:30:24;;;;;;;11.77;9.70;;;5.20;91.40;;;;;;5109811;28;21114;-66
2021/04/18 05:32:50;;;;;;;11.63;10.10;;;5.30;91.40;;;;;;5109534;28;20047;-67
2021/04/18 05:35:16;;;;;;;10.83;9.73;;;5.30;91.40;;;;;;5109122;28;20298;-67
2021/04/18 05:37:41;;;;;;;13.07;10.03;;;5.30;91.50;;;;;;5110061;28;20316;-67
2021/04/18 05:40:08;;;;;;;13.07;11.40;;;5.40;91.50;;;;;;5109496;28;20294;-67
2021/04/18 05:42:34;;;;;;;13.90;11.10;;;5.40;91.50;;;;;;5109261;28;20051;-67
2021/04/18 05:45:00;;;;;;;13.87;10.20;;;5.40;91.50;;;;;;5109571;28;20389;-67
2021/04/18 05:47:26;;;;;;;16.20;13.50;;;5.50;91.50;;;;;;5109353;28;20376;-67
2021/04/18 05:49:52;;;;;;;17.80;14.33;;;5.60;91.50;;;;;;5108903;28;20102;-67
2021/04/18 05:52:19;;;;;;;15.87;13.57;;;5.60;91.90;;;;;;5109298;28;20821;-67
2021/04/18 05:54:44;;;;;;;13.43;12.10;;;5.60;91.50;;;;;;5109439;28;20078;-67
2021/04/18 05:57:10;;;;;;;14.73;12.07;;;5.70;91.60;;;;;;5107497;28;20735;-68
2021/04/18 05:59:36;;;;;;;13.03;10.80;;;5.80;91.50;;;;;;5108723;28;20289;-68
2021/04/18 06:02:02;;;;;;;15.20;11.33;;;5.80;91.60;;;;;;5108365;28;20043;-69
2021/04/18 06:04:28;;;;;;;13.53;10.93;;;5.90;91.60;;;;;;5109156;28;20078;-67
2021/04/18 06:06:54;;;;;;;13.80;11.57;;;6.10;91.70;;;;;;5108964;28;20186;-68
2021/04/18 06:09:20;;;;;;;13.07;11.43;;;6.30;91.80;;;;;;5109005;28;20316;-66
2021/04/18 06:11:46;;;;;;;15.03;10.70;;;6.60;91.60;;;;;;5108563;28;20811;-67
2021/04/18 06:14:11;;;;;;;14.53;11.27;;;6.90;91.30;;;;;;5108647;28;20077;-67
2021/04/18 06:16:37;;;;;;;14.30;12.13;;;7.10;91.10;;;;;;5108072;28;20407;-67
2021/04/18 06:19:03;;;;;;;14.00;11.53;;;7.30;91.10;;;;;;5107076;28;20047;-67
2021/04/18 06:21:31;;;;;;;16.60;12.60;;;7.50;91.00;;;;;;5108984;28;20138;-68
2021/04/18 06:23:57;;;;;;;15.43;12.13;;;7.70;90.80;;;;;;5107645;28;20388;-67
2021/04/18 06:26:22;;;;;;;18.27;13.10;;;7.70;90.60;;;;;;5108025;28;20195;-68
2021/04/18 06:28:48;;;;;;;16.53;12.73;;;7.70;90.60;;;;;;5108462;28;20457;-68
2021/04/18 06:31:14;;;;;;;14.50;12.53;;;7.70;90.60;;;;;;5107758;28;20134;-68
2021/04/18 06:33:39;;;;;;;18.53;12.27;;;7.80;90.70;;;;;;5108444;28;20454;-68
2021/04/18 06:36:05;;;;;;;16.07;13.43;;;7.90;91.10;;;;;;5108065;28;20067;-68
2021/04/18 06:38:31;;;;;;;16.90;13.17;;;7.90;90.60;;;;;;5108140;28;20047;-68
2021/04/18 06:40:57;;;;;;;19.40;14.17;;;7.90;90.40;;;;;;5108296;28;20339;-67
2021/04/18 06:43:23;;;;;;;20.10;15.30;;;7.90;90.50;;;;;;5108258;28;20516;-67
2021/04/18 06:45:51;;;;;;;19.30;14.97;;;7.90;90.50;;;;;;5107443;28;20040;-66
2021/04/18 06:48:18;;;;;;;21.17;14.67;;;7.90;90.60;;;;;;5108544;28;20306;-67
2021/04/18 06:50:45;;;;;;;21.00;14.87;;;7.90;90.70;;;;;;5107536;28;20300;-67
2021/04/18 06:53:10;;;;;;;20.93;15.30;;;7.90;90.80;;;;;;5107347;28;20312;-67
2021/04/18 06:55:37;;;;;;;20.40;14.30;;;8.00;90.70;;;;;;5108665;28;20666;-67
2021/04/18 06:58:02;;;;;;;21.20;15.50;;;8.00;90.60;;;;;;5107065;28;20044;-67
2021/04/18 07:00:28;;;;;;;21.97;15.30;;;8.20;90.70;;;;;;5106316;28;20301;-68
2021/04/18 07:03:12;;;;;;;21.00;15.73;;;8.40;90.70;;;;;;5107927;28;20100;-68
2021/04/18 07:05:46;;;;;;;20.90;15.57;;;8.80;90.70;;;;;;5108393;28;20074;-67
2021/04/18 07:08:19;;;;;;;24.00;17.77;;;9.10;90.10;;;;;;5107302;28;20290;-68
2021/04/18 07:10:45;;;;;;;23.53;16.23;;;9.30;89.90;;;;;;5107544;28;20297;-68
2021/04/18 07:13:15;;;;;;;22.83;16.67;;;9.30;88.70;;;;;;5107056;28;20300;-67
2021/04/18 07:15:42;;;;;;;22.33;16.43;;;9.30;88.80;;;;;;5107850;28;20793;-68
2021/04/18 07:18:11;;;;;;;20.47;16.00;;;9.40;88.40;;;;;;5107328;28;20308;-68
2021/04/18 07:20:53;;;;;;;23.70;15.43;;;9.40;88.20;;;;;;5107079;28;20817;-68
2021/04/18 07:23:29;;;;;;;17.53;14.73;;;9.50;87.20;;;;;;5107972;27;20798;-68
2021/04/18 07:25:58;;;;;;;19.53;14.50;;;9.40;87.10;;;;;;5107805;28;20903;-68
2021/04/18 07:28:26;;;;;;;22.70;13.37;;;9.50;87.00;;;;;;5107799;28;20304;-68
2021/04/18 07:30:55;;;;;;;20.43;12.93;;;9.40;85.80;;;;;;5107960;28;20950;-68
2021/04/18 07:33:21;;;;;;;18.47;13.63;;;9.40;85.80;;;;;;5107946;28;20301;-68
2021/04/18 07:35:47;;;;;;;20.17;14.03;;;9.40;85.70;;;;;;5107843;28;20305;-68
2021/04/18 07:38:12;;;;;;;22.40;14.70;;;9.40;85.50;;;;;;5107453;28;20058;-68
2021/04/18 07:40:38;;;;;;;22.33;14.87;;;9.30;85.30;;;;;;5107932;28;20073;-68
2021/04/18 07:43:08;;;;;;;20.37;13.23;;;9.30;85.60;;;;;;5107023;28;20047;-68
2021/04/18 07:45:34;;;;;;;19.40;14.27;;;9.30;86.50;;;;;;5108529;28;20044;-68
2021/04/18 07:48:00;;;;;;;19.90;14.23;;;9.40;85.60;;;;;;5107121;28;20297;-68
2021/04/18 07:50:29;;;;;;;21.30;13.93;;;9.40;85.30;;;;;;5109978;28;20303;-68
2021/04/18 07:52:55;;;;;;;17.83;12.33;;;9.50;85.30;;;;;;5111512;28;20887;-67
2021/04/18 07:55:21;;;;;;;48.53;44.90;;;9.50;84.90;;;;;;5111617;28;20130;-67
2021/04/18 07:57:47;;;;;;;19.77;16.30;;;9.60;84.80;;;;;;5111780;28;20763;-68
2021/04/18 08:00:14;;;;;;;20.10;13.43;;;9.60;84.40;;;;;;5111333;28;20500;-68
2021/04/18 08:02:41;;;;;;;18.73;12.47;;;9.70;84.20;;;;;;5111415;28;20786;-67
2021/04/18 08:05:09;;;;;;;16.93;12.03;;;9.90;83.70;;;;;;5111561;28;20312;-66
2021/04/18 08:07:57;;;;;;;16.90;12.93;;;10.00;83.20;;;;;;5111481;27;20376;-67
2021/04/18 08:10:27;;;;;;;17.07;12.77;;;10.20;81.50;;;;;;5111260;28;20316;-68
2021/04/18 08:12:59;;;;;;;16.70;11.90;;;10.30;82.10;;;;;;5111601;28;20301;-67
2021/04/18 08:15:25;;;;;;;;;;;10.50;80.10;;;;;;5111822;28;20305;-66
2021/04/18 08:18:12;;;;;;;18.50;12.57;;;10.50;79.50;;;;;;5110758;28;19942;-67
2021/04/18 08:20:46;;;;;;;17.80;12.57;;;10.80;80.60;;;;;;5111639;28;20139;-66
2021/04/18 08:23:17;;;;;;;16.03;11.97;;;11.10;80.20;;;;;;5111181;28;20080;-67
2021/04/18 08:26:04;;;;;;;16.95;12.38;;;11.40;79.70;;;;;;5110923;28;20047;-68
2021/04/18 08:28:31;;;;;;;14.63;11.30;;;12.00;78.30;;;;;;5111261;28;20051;-67
2021/04/18 08:31:05;;;;;;;14.70;9.90;;;12.50;77.80;;;;;;5110046;28;20066;-67
2021/04/18 08:33:39;;;;;;;16.60;8.97;;;12.80;74.40;;;;;;5111565;28;20542;-67
2021/04/18 08:36:19;;;;;;;12.47;9.00;;;13.00;70.60;;;;;;5110995;28;20043;-68
2021/04/18 08:38:47;;;;;;;14.63;9.87;;;13.20;68.80;;;;;;5110910;28;20071;-68
2021/04/18 08:41:15;;;;;;;10.83;8.47;;;13.40;70.50;;;;;;5110795;28;20515;-68
2021/04/18 08:43:44;;;;;;;14.87;9.57;;;13.70;69.90;;;;;;5110709;28;20096;-68
2021/04/18 08:46:10;;;;;;;13.57;9.30;;;13.80;67.90;;;;;;5110650;28;20048;-68
2021/04/18 08:48:37;;;;;;;11.80;8.30;;;13.90;68.20;;;;;;5110649;28;20063;-68
2021/04/18 08:51:02;;;;;;;13.67;10.53;;;14.00;68.50;;;;;;5109799;28;20052;-68
2021/04/18 08:53:29;;;;;;;14.37;9.77;;;14.00;67.30;;;;;;5110267;28;20381;-68
2021/04/18 08:55:59;;;;;;;12.70;9.80;;;14.10;67.00;;;;;;5110395;28;20126;-69
2021/04/18 08:58:38;;;;;;;14.20;10.40;;;14.00;66.50;;;;;;5110701;28;20356;-69
2021/04/18 09:01:11;;;;;;;13.77;10.07;;;14.00;64.80;;;;;;5109587;28;20051;-68
2021/04/18 09:03:39;;;;;;;14.20;10.27;;;14.10;66.50;;;;;;5109941;28;20048;-68
2021/04/18 09:06:19;;;;;;;13.37;10.57;;;14.00;66.00;;;;;;5109868;28;20065;-68
2021/04/18 09:08:53;;;;;;;12.50;10.10;;;14.00;65.90;;;;;;5110311;28;20039;-68
2021/04/18 09:11:20;;;;;;;14.03;10.23;;;14.10;66.30;;;;;;5110236;28;20044;-68
2021/04/18 09:13:57;;;;;;;12.00;10.47;;;14.20;65.70;;;;;;5109801;28;20188;-68
2021/04/18 09:16:31;;;;;;;14.13;9.77;;;14.20;63.10;;;;;;5111128;28;20090;-69
2021/04/18 09:19:19;;;;;;;12.60;9.50;;;14.30;64.40;;;;;;5109765;28;20051;-68
2021/04/18 09:21:56;;;;;;;13.87;9.20;;;14.40;62.30;;;;;;5109605;28;20048;-69
2021/04/18 09:24:21;;;;;;;12.83;8.87;;;14.50;62.20;;;;;;5109755;28;20082;-69
2021/04/18 09:26:58;;;;;;;10.97;8.47;;;14.60;62.80;;;;;;5109549;28;20090;-69
2021/04/18 09:29:27;;;;;;;10.53;9.20;;;14.80;61.80;;;;;;5110478;28;20063;-69
2021/04/18 09:31:55;;;;;;;12.33;9.03;;;14.70;61.90;;;;;;5109583;28;20126;-68
2021/04/18 09:34:21;;;;;;;14.27;8.73;;;14.70;62.10;;;;;;5109281;28;20043;-68
2021/04/18 09:36:50;;;;;;;11.70;8.63;;;14.70;61.80;;;;;;5110095;28;20066;-68
2021/04/18 09:39:16;;;;;;;10.73;8.37;;;14.70;62.00;;;;;;5109336;27;20055;-68
2021/04/18 09:41:43;;;;;;;11.67;9.30;;;14.70;61.70;;;;;;5109090;28;20043;-68
2021/04/18 09:44:25;;;;;;;14.17;8.43;;;14.60;61.70;;;;;;5109224;28;20080;-68
2021/04/18 09:46:52;;;;;;;11.37;8.30;;;14.50;61.00;;;;;;5109467;28;20685;-68
2021/04/18 09:49:17;;;;;;;9.73;7.60;;;14.30;62.10;;;;;;5109159;28;20715;-67
2021/04/18 09:52:00;;;;;;;9.77;7.03;;;14.40;60.70;;;;;;5109899;28;20051;-68
2021/04/18 09:54:35;;;;;;;12.30;8.57;;;14.40;59.90;;;;;;5109654;28;20134;-68
2021/04/18 09:57:24;;;;;;;9.40;5.90;;;14.30;59.20;;;;;;5108769;28;20063;-66
2021/04/18 10:00:17;;;;;;;10.93;5.80;;;14.20;56.90;;;;;;5109128;28;20051;-69
2021/04/18 10:03:00;;;;;;;8.83;5.90;;;14.20;57.30;;;;;;5106173;28;20078;-70
2021/04/18 10:05:27;;;;;;;10.57;7.07;;;14.10;56.50;;;;;;5106805;28;20192;-70
2021/04/18 10:08:22;;;;;;;9.73;7.00;;;14.10;57.80;;;;;;5108586;28;20051;-70
2021/04/18 10:10:51;;;;;;;11.13;8.03;;;14.10;59.10;;;;;;5106472;28;20111;-70
2021/04/18 10:13:39;;;;;;;11.37;6.47;;;14.30;59.50;;;;;;5108109;28;20047;-70
2021/04/18 10:16:07;;;;;;;7.43;5.83;;;14.30;57.90;;;;;;5105695;28;20051;-69
2021/04/18 10:18:34;;;;;;;7.00;5.67;;;14.20;57.70;;;;;;5108502;28;20201;-70
2021/04/18 10:21:20;;;;;;;6.73;5.10;;;14.20;56.90;;;;;;5105236;28;20108;-70
2021/04/18 10:23:50;;;;;;;8.80;5.03;;;14.20;55.60;;;;;;5107007;28;20043;-70
2021/04/18 10:26:19;;;;;;;9.30;5.40;;;14.10;55.50;;;;;;5107757;28;20112;-70
2021/04/18 10:28:46;;;;;;;8.57;4.83;;;14.00;55.30;;;;;;5107850;28;20039;-70
2021/04/18 10:31:13;;;;;;;7.37;4.70;;;14.00;55.50;;;;;;5107783;28;20051;-70
2021/04/18 10:33:38;;;;;;;8.33;5.70;;;14.10;55.50;;;;;;5109397;28;20043;-70
2021/04/18 10:36:05;;;;;;;8.03;5.20;;;14.30;55.80;;;;;;5107931;28;20506;-69
2021/04/18 10:38:30;;;;;;;10.90;5.63;;;14.40;55.30;;;;;;5107216;28;20124;-69
2021/04/18 10:40:56;;;;;;;9.30;5.37;;;14.60;54.90;;;;;;5108331;28;20411;-68
2021/04/18 10:43:22;;;;;;;8.40;4.73;;;14.60;55.00;;;;;;5108952;28;20055;-68
2021/04/18 10:45:47;;;;;;;8.30;5.13;;;14.70;54.90;;;;;;5108294;28;20070;-68
2021/04/18 10:48:13;;;;;;;6.50;4.97;;;14.60;55.00;;;;;;5107903;28;20097;-69
2021/04/18 10:50:38;;;;;;;10.80;5.10;;;14.70;54.80;;;;;;5108613;28;20130;-69
2021/04/18 10:53:04;;;;;;;7.87;4.77;;;14.70;54.70;;;;;;5106850;28;20055;-68
2021/04/18 10:55:30;;;;;;;6.13;4.30;;;14.70;54.30;;;;;;5108178;28;20050;-69
2021/04/18 10:57:56;;;;;;;9.13;4.90;;;14.70;54.90;;;;;;5107681;28;20589;-68
2021/04/18 11:00:22;;;;;;;10.43;5.20;;;14.80;54.60;;;;;;5108316;28;20051;-68
2021/04/18 11:02:48;;;;;;;6.83;5.13;;;14.90;54.50;;;;;;5107455;28;20070;-68
2021/04/18 11:05:14;;;;;;;8.63;4.97;;;15.00;53.90;;;;;;5107369;28;20051;-69
2021/04/18 11:07:39;;;;;;;8.40;5.03;;;15.00;53.60;;;;;;5108553;28;20043;-68
2021/04/18 11:10:07;;;;;;;8.87;5.50;;;15.20;54.00;;;;;;5107299;28;20046;-67
2021/04/18 11:12:32;;;;;;;8.63;5.77;;;15.30;53.30;;;;;;5107577;28;20055;-67
2021/04/18 11:14:58;;;;;;;10.83;5.13;;;15.30;53.60;;;;;;5107608;28;20075;-68
2021/04/18 11:17:25;;;;;;;6.53;5.00;;;15.40;53.00;;;;;;5108397;28;20108;-67
2021/04/18 11:19:52;;;;;;;6.70;4.87;;;15.40;52.30;;;;;;5106615;28;20039;-68
2021/04/18 11:22:19;;;;;;;7.80;5.23;;;15.40;52.30;;;;;;5107778;28;20047;-68
2021/04/18 11:24:45;;;;;;;7.93;5.57;;;15.40;52.50;;;;;;5110282;28;20063;-68
2021/04/18 11:27:11;;;;;;;7.73;4.90;;;15.60;52.40;;;;;;5111572;28;20193;-68
2021/04/18 11:29:41;;;;;;;6.77;4.17;;;15.60;52.10;;;;;;5111764;28;20055;-68
2021/04/18 11:32:07;;;;;;;7.97;4.07;;;15.60;51.60;;;;;;5111482;28;20408;-69
2021/04/18 11:34:33;;;;;;;6.60;4.73;;;15.60;51.50;;;;;;5111654;28;20043;-70
2021/04/18 11:36:59;;;;;;;7.77;5.40;;;15.60;51.90;;;;;;5111162;28;20126;-68
2021/04/18 11:39:24;;;;;;;6.67;4.70;;;15.50;52.30;;;;;;5111564;28;20135;-69
2021/04/18 11:41:50;;;;;;;9.20;5.17;;;15.60;52.90;;;;;;5110829;28;20476;-68
2021/04/18 11:44:16;;;;;;;9.93;5.17;;;15.80;52.30;;;;;;5111821;28;20084;-68
2021/04/18 11:46:43;;;;;;;10.33;5.47;;;16.00;51.90;;;;;;5111304;28;20069;-68
2021/04/18 11:49:10;;;;;;;8.03;5.07;;;16.10;51.80;;;;;;5110994;28;20078;-68
2021/04/18 11:51:37;;;;;;;8.77;5.67;;;16.30;51.60;;;;;;5111256;28;20074;-67
2021/04/18 11:54:04;;;;;;;6.93;5.60;;;16.30;51.30;;;;;;5111203;28;20069;-67
2021/04/18 11:56:30;;;;;;;8.23;5.40;;;16.30;50.70;;;;;;5111079;28;20048;-67
2021/04/18 11:58:56;;;;;;;6.97;5.67;;;16.20;51.50;;;;;;5111422;28;20048;-67
2021/04/18 12:01:21;;;;;;;7.43;5.50;;;16.10;51.30;;;;;;5110872;28;20050;-67
2021/04/18 12:03:47;;;;;;;6.97;5.17;;;16.20;52.10;;;;;;5110467;28;20082;-67
2021/04/18 12:06:13;;;;;;;6.20;5.30;;;16.40;51.70;;;;;;5110243;28;20527;-68
2021/04/18 12:08:38;;;;;;;8.27;5.20;;;16.30;51.20;;;;;;5110488;28;20157;-68
2021/04/18 12:11:04;;;;;;;12.07;6.83;;;16.20;50.90;;;;;;5110699;28;20036;-67
2021/04/18 12:13:29;;;;;;;9.93;6.43;;;16.20;51.90;;;;;;5110806;28;20646;-68
2021/04/18 12:15:55;;;;;;;8.33;6.60;;;16.20;52.80;;;;;;5109780;28;20528;-68
2021/04/18 12:18:21;;;;;;;10.33;5.57;;;16.20;53.10;;;;;;5110718;28;20138;-67
2021/04/18 12:20:47;;;;;;;7.50;4.37;;;16.30;52.80;;;;;;5110981;28;20126;-68
2021/04/18 12:23:13;;;;;;;9.77;4.60;;;16.40;52.10;;;;;;5110285;28;20084;-67
2021/04/18 12:25:38;;;;;;;8.83;5.20;;;16.60;50.80;;;;;;5111164;28;20561;-68
2021/04/18 12:28:04;;;;;;;7.37;5.30;;;16.70;50.30;;;;;;5110299;28;20071;-67
2021/04/18 12:30:30;;;;;;;7.63;5.07;;;16.70;50.20;;;;;;5110142;28;20067;-67
2021/04/18 12:32:55;;;;;;;7.23;5.13;;;16.50;50.80;;;;;;5110253;28;20071;-67
2021/04/18 12:35:21;;;;;;;11.40;5.23;;;16.40;50.80;;;;;;5110028;28;20048;-67
2021/04/18 12:37:47;;;;;;;8.40;5.87;;;16.30;51.30;;;;;;5110121;28;20092;-67
2021/04/18 12:40:13;;;;;;;6.23;5.00;;;16.40;51.30;;;;;;5110190;28;20050;-68
2021/04/18 12:42:39;;;;;;;8.37;5.77;;;16.50;51.40;;;;;;5110780;28;20058;-67